Time;durP1;ratioP1;P1;durP2;ratioP2;P2;SDS_P1;SDS_P2;PMS_P1;PMS_P2;Temp;Humidity;BMP_temperature;BMP_pressure;BME280_temperature;BME280_humidity;BME280_pressure;Samples;Min_cycle;Max_cycle;Signal;HPM_P1;HPM_P2
2022/03/20 00:01:48;;;;;;;;;3.00;3.00;;;;;10.08;33.00;102081.91;5046980;28;46313;-55
2022/03/20 00:04:14;;;;;;;;;6.00;4.50;;;;;10.14;33.04;102086.16;5034507;28;45454;-56
2022/03/20 00:06:39;;;;;;;;;3.00;3.00;;;;;10.12;33.41;102088.88;5033263;28;45411;-57
2022/03/20 00:09:05;;;;;;;;;4.50;3.00;;;;;10.07;33.68;102092.59;5023561;28;45452;-57
2022/03/20 00:11:30;;;;;;;;;5.00;5.00;;;;;10.04;33.40;102086.47;5018871;28;47826;-55
2022/03/20 00:13:55;;;;;;;;;4.50;4.50;;;;;9.96;33.44;102093.78;5047155;28;45393;-55
2022/03/20 00:16:23;;;;;;;;;2.75;2.50;;;;;9.91;33.30;102093.06;5034261;28;45419;-56
2022/03/20 00:18:49;;;;;;;;;2.75;2.00;;;;;9.90;33.59;102086.00;5050204;28;45522;-55
2022/03/20 00:21:14;;;;;;;;;6.00;3.00;;;;;9.87;33.75;102083.41;5056101;28;45958;-55
2022/03/20 00:23:40;;;;;;;;;5.75;5.75;;;;;9.88;32.83;102082.50;5043858;28;45613;-56
2022/03/20 00:26:06;;;;;;;;;2.00;2.00;;;;;9.81;33.22;102088.06;5048489;28;45661;-56
2022/03/20 00:28:32;;;;;;;;;3.00;2.25;;;;;9.78;33.91;102091.69;5045805;28;45522;-56
2022/03/20 00:30:58;;;;;;;;;5.00;5.00;;;;;9.72;34.11;102087.38;5037647;28;45539;-56
2022/03/20 00:33:24;;;;;;;;;6.25;5.00;;;;;9.68;33.56;102087.53;5047901;28;45287;-57
2022/03/20 00:35:50;;;;;;;;;2.50;2.00;;;;;9.61;34.61;102091.25;5048330;28;45300;-57
2022/03/20 00:38:16;;;;;;;;;2.50;2.50;;;;;9.56;34.66;102090.53;5040589;28;45474;-57
2022/03/20 00:40:42;;;;;;;;;6.50;5.00;;;;;9.54;34.53;102084.41;5050715;28;47376;-56
2022/03/20 00:43:08;;;;;;;;;6.00;5.00;;;;;9.55;35.25;102087.00;5054114;28;45288;-54
2022/03/20 00:45:34;;;;;;;;;10.50;6.00;;;;;9.47;34.93;102073.06;5054830;28;45523;-56
2022/03/20 00:48:00;;;;;;;;;5.50;5.50;;;;;9.49;35.08;102078.31;5038960;28;45423;-56
2022/03/20 00:50:25;;;;;;;;;3.50;3.50;;;;;9.50;35.49;102072.09;5047059;28;45479;-56
2022/03/20 00:52:51;;;;;;;;;2.00;2.00;;;;;9.38;35.73;102068.03;5042508;28;46945;-57
2022/03/20 00:55:16;;;;;;;;;6.25;3.50;;;;;9.35;35.83;102070.75;5047672;28;45488;-57
2022/03/20 00:57:42;;;;;;;;;4.75;4.75;;;;;9.30;35.82;102070.88;5024480;28;45443;-52
2022/03/20 01:00:08;;;;;;;;;6.75;6.75;;;;;9.23;36.53;102074.59;5056173;28;46275;-56
2022/03/20 01:02:41;;;;;;;;;2.25;2.25;;;;;9.17;35.68;102080.09;5056578;28;45421;-56
2022/03/20 01:05:08;;;;;;;;;3.00;3.00;;;;;9.15;36.36;102066.00;5056029;28;45288;-56
2022/03/20 01:07:34;;;;;;;;;5.25;5.25;;;;;9.13;36.08;102066.03;5043136;28;45365;-54
2022/03/20 01:10:01;;;;;;;;;6.00;3.00;;;;;9.13;35.71;102062.50;5043820;28;45364;-56
2022/03/20 01:12:28;;;;;;;;;3.00;2.25;;;;;9.05;36.00;102048.56;5036980;28;45450;-56
2022/03/20 01:14:53;;;;;;;;;6.00;4.50;;;;;9.08;37.10;102059.09;5036550;28;45318;-55
2022/03/20 01:17:18;;;;;;;;;5.75;3.00;;;;;9.05;36.62;102059.16;5052415;28;45521;-56
2022/03/20 01:19:44;;;;;;;;;5.25;3.00;;;;;9.02;36.37;102059.25;5057029;28;45268;-57
2022/03/20 01:22:09;;;;;;;;;3.00;3.00;;;;;8.90;37.13;102054.28;5033280;28;45210;-55
2022/03/20 01:24:34;;;;;;;;;5.00;3.00;;;;;8.90;36.71;102054.28;5040498;28;45240;-56
2022/03/20 01:27:00;;;;;;;;;3.00;3.00;;;;;8.89;36.70;102053.41;5041907;28;45592;-55
2022/03/20 01:29:25;;;;;;;;;2.00;2.00;;;;;8.88;37.03;102049.00;5043996;28;45765;-55
2022/03/20 01:31:52;;;;;;;;;1.00;1.00;;;;;8.79;37.57;102047.44;5042470;28;45594;-56
2022/03/20 01:34:17;;;;;;;;;4.00;3.00;;;;;8.78;37.68;102056.31;5056614;28;45466;-57
2022/03/20 01:36:43;;;;;;;;;3.00;2.00;;;;;8.51;37.68;102017.22;5014265;28;45630;-55
2022/03/20 01:39:08;;;;;;;;;5.25;2.75;;;;;8.45;38.16;102026.19;5042273;28;45694;-55
2022/03/20 01:41:34;;;;;;;;;2.00;2.00;;;;;8.56;37.79;102055.09;5037813;28;45629;-55
2022/03/20 01:44:02;;;;;;;;;2.25;2.25;;;;;8.54;38.32;102051.63;5036638;28;45459;-56
2022/03/20 01:46:30;;;;;;;;;2.75;1.75;;;;;8.55;37.42;102043.63;5024437;28;45260;-54
2022/03/20 01:48:55;;;;;;;;;3.25;2.25;;;;;8.56;38.03;102055.97;5037426;28;45497;-56
2022/03/20 01:52:10;;;;;;;;;1.50;1.50;;;;;8.53;37.21;102033.97;5048471;28;45360;-55
2022/03/20 01:54:07;;;;;;;;;3.00;3.00;;;;;8.57;37.76;102030.31;5044469;28;45386;-56
2022/03/20 01:56:33;;;;;;;;;2.00;2.00;;;;;8.51;38.07;102043.75;5044161;28;45848;-56
2022/03/20 01:59:08;;;;;;;;;2.00;2.00;;;;;8.44;38.36;102029.75;5046386;28;46323;-56
2022/03/20 02:01:35;;;;;;;;;2.00;2.00;;;;;8.39;38.02;102020.19;5049049;28;45385;-54
2022/03/20 02:04:00;;;;;;;;;3.00;3.00;;;;;8.44;39.14;102042.13;5035712;28;45407;-53
2022/03/20 02:06:26;;;;;;;;;4.00;2.25;;;;;8.42;38.92;102038.66;5041404;28;45304;-55
2022/03/20 02:08:56;;;;;;;;;1.25;1.25;;;;;8.34;38.58;102019.41;5042781;28;46050;-56
2022/03/20 02:11:25;;;;;;;;;4.00;3.50;;;;;8.34;39.03;102014.09;5030084;28;45319;-55
2022/03/20 02:13:52;;;;;;;;;3.75;3.25;;;;;8.25;39.20;102018.69;5053781;28;45557;-54
2022/03/20 02:16:17;;;;;;;;;2.00;1.00;;;;;8.26;39.09;102023.09;5046849;28;45909;-56
2022/03/20 02:18:44;;;;;;;;;1.00;1.00;;;;;8.27;39.14;102022.19;5047585;28;45510;-55
2022/03/20 02:21:09;;;;;;;;;2.50;2.50;;;;;8.22;39.28;102002.88;5037364;28;45281;-57
2022/03/20 02:23:36;;;;;;;;;3.25;3.25;;;;;8.23;39.69;102025.81;5053867;28;45687;-55
2022/03/20 02:26:03;;;;;;;;;3.25;3.25;;;;;8.25;40.12;102018.69;5032305;28;45543;-56
2022/03/20 02:28:29;;;;;;;;;8.25;6.75;;;;;8.19;39.60;101997.63;5052413;28;46803;-56
2022/03/20 02:30:54;;;;;;;;;6.00;2.75;;;;;8.16;39.69;101997.72;5048180;28;45360;-56
2022/03/20 02:33:23;;;;;;;;;20.00;20.00;;;;;8.18;39.59;101989.72;5041999;28;45440;-55
2022/03/20 02:35:51;;;;;;;;;8.50;5.50;;;;;8.09;40.77;102006.72;5049253;28;45180;-56
2022/03/20 02:38:20;;;;;;;;;2.00;2.00;;;;;7.98;40.67;102001.66;5030856;28;46081;-53
2022/03/20 02:40:45;;;;;;;;;2.75;2.75;;;;;7.98;40.78;101998.16;5054186;28;45482;-54
2022/03/20 02:43:12;;;;;;;;;2.25;2.25;;;;;7.97;40.63;101991.09;5055692;28;45365;-55
2022/03/20 02:45:38;;;;;;;;;0.00;0.00;;;;;8.00;40.46;101988.38;5043759;28;45649;-54
2022/03/20 02:48:04;;;;;;;;;5.00;4.00;;;;;7.94;40.76;101992.06;5047308;28;45355;-56
2022/03/20 02:50:38;;;;;;;;;1.50;1.00;;;;;7.92;41.48;101998.28;5055209;28;45246;-56
2022/03/20 02:53:13;;;;;;;;;1.00;1.00;;;;;7.87;41.99;101994.88;5047454;28;45203;-56
2022/03/20 02:55:45;;;;;;;;;1.50;1.50;;;;;7.86;41.78;101998.41;5030568;28;45905;-55
2022/03/20 02:58:13;;;;;;;;;2.00;2.00;;;;;7.80;42.59;101986.16;5038455;28;45498;-55
2022/03/20 03:00:41;;;;;;;;;4.00;1.75;;;;;7.76;41.84;101981.84;5050434;28;45424;-53
2022/03/20 03:03:13;;;;;;;;;6.75;2.25;;;;;7.74;42.23;101982.81;5055179;28;45445;-57
2022/03/20 03:05:40;;;;;;;;;2.00;2.00;;;;;7.72;42.49;101985.50;5032578;28;45281;-57
2022/03/20 03:10:56;;;;;;;;;2.00;2.00;;;;;7.61;43.21;101976.91;5048860;28;45350;-54
2022/03/20 03:13:39;;;;;;;;;5.00;2.75;;;;;7.54;43.82;101968.19;5040858;28;45407;-54
2022/03/20 03:16:09;;;;;;;;;1.00;1.00;;;;;7.51;43.66;101970.94;5041793;28;45421;-54
2022/03/20 03:18:36;;;;;;;;;2.50;2.50;;;;;7.48;43.60;101971.00;5037377;28;47098;-54
2022/03/20 03:21:03;;;;;;;;;8.00;3.50;;;;;7.41;44.15;101964.06;5040191;28;45382;-55
2022/03/20 03:23:29;;;;;;;;;3.50;3.50;;;;;7.38;43.95;101964.16;5053636;28;45379;-62
2022/03/20 03:25:56;;;;;;;;;4.25;4.00;;;;;7.29;44.60;101959.94;5058589;28;45490;-57
2022/03/20 03:28:23;;;;;;;;;2.00;2.00;;;;;7.27;44.54;101959.06;5053092;28;45268;-55
2022/03/20 03:30:49;;;;;;;;;4.25;4.25;;;;;7.25;44.97;101955.59;5041372;28;45324;-55
2022/03/20 03:33:19;;;;;;;;;2.00;2.00;;;;;7.10;44.71;101946.19;5051031;28;45369;-56
2022/03/20 03:35:51;;;;;;;;;5.00;5.00;;;;;7.27;44.99;101968.78;5044466;28;45496;-55
2022/03/20 03:38:18;;;;;;;;;4.00;4.00;;;;;7.19;44.58;101952.22;5039801;28;47721;-57
2022/03/20 03:40:46;;;;;;;;;8.00;3.50;;;;;7.24;44.73;101972.38;5033726;28;45441;-54
2022/03/20 03:43:14;;;;;;;;;5.00;5.00;;;;;7.14;45.13;101948.78;5044914;28;45568;-55
2022/03/20 03:45:40;;;;;;;;;8.75;8.75;;;;;7.16;44.91;101961.09;5056944;28;45263;-57
2022/03/20 03:48:07;;;;;;;;;3.50;3.50;;;;;7.18;45.32;101961.94;5053647;28;46073;-55
2022/03/20 03:50:33;;;;;;;;;5.25;5.25;;;;;7.15;44.95;101969.91;5053124;28;45475;-55
2022/03/20 03:52:58;;;;;;;;;9.00;4.25;;;;;7.13;45.69;101957.63;5058461;28;45335;-54
2022/03/20 03:55:24;;;;;;;;;4.50;4.50;;;;;7.10;45.39;101948.84;5056267;28;45554;-57
2022/03/20 03:57:50;;;;;;;;;5.00;5.00;;;;;7.15;45.28;101958.44;5045484;28;45458;-54
2022/03/20 04:00:17;;;;;;;;;4.75;4.00;;;;;7.17;45.77;101960.19;5037896;28;45412;-56
2022/03/20 04:02:43;;;;;;;;;5.50;5.50;;;;;7.12;45.98;101961.16;5039114;28;45523;-56
2022/03/20 04:05:09;;;;;;;;;6.50;5.00;;;;;7.10;46.30;101959.44;5051599;28;45305;-57
2022/03/20 04:07:35;;;;;;;;;5.00;5.00;;;;;7.10;46.32;101953.25;5055757;28;46262;-56
2022/03/20 04:10:05;;;;;;;;;6.75;5.50;;;;;7.05;46.11;101940.13;5057194;28;45367;-58
2022/03/20 04:12:33;;;;;;;;;8.00;7.00;;;;;7.01;46.43;101943.72;5042178;28;45478;-55
2022/03/20 04:15:02;;;;;;;;;8.25;8.00;;;;;6.96;46.38;101935.03;5052299;28;45561;-56
2022/03/20 04:17:30;;;;;;;;;8.00;5.00;;;;;6.96;46.64;101944.72;5044624;28;46277;-55
2022/03/20 04:19:57;;;;;;;;;7.25;5.00;;;;;7.01;46.51;101951.66;5038508;28;45354;-57
2022/03/20 04:22:22;;;;;;;;;8.75;6.00;;;;;7.00;46.58;101951.69;5052591;28;45426;-58
2022/03/20 04:24:50;;;;;;;;;10.25;5.00;;;;;6.90;46.69;101944.81;5058128;28;45572;-58
2022/03/20 04:27:15;;;;;;;;;9.00;7.50;;;;;6.96;46.39;101950.03;5054888;28;45400;-55
2022/03/20 04:29:41;;;;;;;;;8.00;5.75;;;;;6.96;47.28;101950.88;5040089;28;45393;-56
2022/03/20 04:32:08;;;;;;;;;6.50;5.25;;;;;6.89;47.18;101938.66;5029004;28;45525;-55
2022/03/20 04:34:35;;;;;;;;;6.00;6.00;;;;;6.99;46.52;101952.59;5039265;28;45493;-57
2022/03/20 04:37:04;;;;;;;;;6.00;6.00;;;;;6.98;47.39;101959.66;5053356;28;45331;-54
2022/03/20 04:39:30;;;;;;;;;8.25;7.50;;;;;6.93;46.71;101950.97;5049690;28;45671;-54
2022/03/20 04:41:55;;;;;;;;;6.50;5.00;;;;;6.94;46.93;101952.69;5046371;28;45324;-56
2022/03/20 04:44:22;;;;;;;;;6.50;5.75;;;;;6.89;46.78;101943.97;5044851;28;45176;-60
2022/03/20 04:46:47;;;;;;;;;6.50;6.50;;;;;6.92;46.96;101951.84;5053044;28;46338;-56
2022/03/20 05:00:10;;;;;;;;;6.00;6.00;;;;;6.80;47.36;101938.88;5050395;28;45743;-57
2022/03/20 05:02:35;;;;;;;;;9.50;8.00;;;;;6.86;47.47;101943.16;5055580;28;45316;-56
2022/03/20 05:05:00;;;;;;;;;11.00;7.50;;;;;6.85;47.76;101952.88;5057485;28;45930;-54
2022/03/20 05:07:26;;;;;;;;;5.25;5.25;;;;;6.74;47.37;101934.56;5050509;28;46068;-55
2022/03/20 05:15:20;;;;;;;;;7.00;5.00;;;;;6.74;47.72;101942.47;5055678;28;45370;-55
2022/03/20 05:17:45;;;;;;;;;8.00;5.00;;;;;6.74;47.87;101945.13;5040546;28;47824;-55
2022/03/20 05:20:11;;;;;;;;;8.25;8.25;;;;;6.76;47.95;101945.09;5019510;28;45250;-55
2022/03/20 05:22:38;;;;;;;;;8.50;8.50;;;;;6.62;48.71;101945.34;5040524;28;45823;-56
2022/03/20 05:25:07;;;;;;;;;9.25;6.50;;;;;6.55;48.69;101942.88;5048276;28;45468;-58
2022/03/20 05:27:33;;;;;;;;;9.00;7.75;;;;;6.54;48.71;101941.13;5026702;28;45493;-55
2022/03/20 05:29:58;;;;;;;;;5.75;5.75;;;;;6.49;49.65;101944.69;5053949;28;45490;-55
2022/03/20 05:32:24;;;;;;;;;7.50;5.00;;;;;6.49;48.66;101949.97;5044719;28;45718;-57
2022/03/20 05:34:49;;;;;;;;;5.75;5.75;;;;;6.42;48.69;101929.00;5055775;28;45558;-55
2022/03/20 05:37:14;;;;;;;;;8.00;5.00;;;;;6.51;49.19;101936.78;5042615;28;45489;-54
2022/03/20 05:39:40;;;;;;;;;7.50;5.25;;;;;6.53;49.31;101934.97;5042341;28;45241;-55
2022/03/20 05:42:06;;;;;;;;;8.75;8.75;;;;;6.57;48.99;101935.78;5032231;28;45383;-54
2022/03/20 05:44:33;;;;;;;;;11.00;9.00;;;;;6.56;49.02;101944.59;5053801;28;45552;-56
2022/03/20 05:47:00;;;;;;;;;8.00;5.00;;;;;6.45;48.93;101927.16;5011760;28;45680;-56
2022/03/20 05:49:26;;;;;;;;;7.50;6.50;;;;;6.50;49.37;101941.16;5049852;28;45402;-57
2022/03/20 05:51:54;;;;;;;;;11.50;6.50;;;;;6.33;50.05;101943.22;5037409;28;45460;-56
2022/03/20 05:54:20;;;;;;;;;8.00;8.00;;;;;6.13;50.65;101930.38;5043423;28;45454;-55
2022/03/20 05:59:32;;;;;;;;;7.50;7.50;;;;;6.21;49.81;101933.72;5045105;28;45402;-57
2022/03/20 06:01:58;;;;;;;;;8.00;6.75;;;;;6.19;50.17;101924.09;5055049;28;45421;-57
2022/03/20 06:04:24;;;;;;;;;7.50;7.50;;;;;6.18;50.43;101925.00;5051169;28;45561;-56
2022/03/20 06:06:49;;;;;;;;;8.25;8.25;;;;;6.25;49.96;101928.38;5015414;28;45912;-58
2022/03/20 06:09:15;;;;;;;;;7.00;7.00;;;;;6.24;50.10;101935.44;5034903;28;45428;-57
2022/03/20 06:11:43;;;;;;;;;5.50;5.00;;;;;6.28;49.92;101936.28;5050740;28;45433;-56
2022/03/20 06:14:08;;;;;;;;;6.25;6.25;;;;;6.17;49.84;101926.75;5038620;28;45459;-55
2022/03/20 06:16:35;;;;;;;;;7.50;7.50;;;;;6.23;50.29;101936.34;5042083;28;45694;-57
2022/03/20 06:19:02;;;;;;;;;6.75;5.25;;;;;6.18;49.99;101920.59;5020075;28;45516;-56
2022/03/20 06:21:28;;;;;;;;;10.50;6.50;;;;;6.25;49.49;101938.97;5021058;28;45697;-56
2022/03/20 06:23:55;;;;;;;;;5.00;5.00;;;;;6.23;50.45;101938.97;5033971;28;45486;-56
2022/03/20 06:26:24;;;;;;;;;12.50;8.75;;;;;6.06;50.83;101944.56;5045370;28;45474;-55
2022/03/20 06:28:51;;;;;;;;;8.75;8.25;;;;;6.09;50.39;101955.06;5045929;28;45451;-55
2022/03/20 06:31:19;;;;;;;;;11.50;8.25;;;;;5.95;50.58;101945.63;5055585;28;45615;-54
2022/03/20 06:33:44;;;;;;;;;7.00;7.00;;;;;6.02;50.37;101963.13;5047400;28;45473;-57
2022/03/20 06:36:10;;;;;;;;;8.25;8.00;;;;;6.10;50.22;101956.81;5024508;28;48415;-54
2022/03/20 06:38:36;;;;;;;;;11.75;9.00;;;;;6.12;50.02;101964.69;5053821;28;45448;-56
2022/03/20 06:41:06;;;;;;;;;11.00;9.50;;;;;6.10;49.83;101966.50;5054412;28;45320;-56
2022/03/20 06:43:35;;;;;;;;;11.00;9.00;;;;;6.08;49.45;101957.72;5035926;28;45301;-57
2022/03/20 06:46:01;;;;;;;;;10.00;8.00;;;;;6.07;50.10;101963.91;5024607;28;47730;-55
2022/03/20 06:48:26;;;;;;;;;10.00;5.25;;;;;6.10;49.93;101969.13;5046760;28;45269;-57
2022/03/20 06:50:52;;;;;;;;;8.75;7.50;;;;;6.16;49.43;101972.56;5059558;28;45581;-57
2022/03/20 06:53:18;;;;;;;;;12.25;9.50;;;;;6.08;50.08;101963.88;5041357;28;45334;-56
2022/03/20 06:55:45;;;;;;;;;12.00;8.00;;;;;6.16;50.08;101974.34;5037131;28;45924;-56
2022/03/20 06:58:11;;;;;;;;;6.25;6.25;;;;;6.24;49.51;101976.84;5054625;28;45539;-55
2022/03/20 07:00:37;;;;;;;;;10.00;8.75;;;;;6.42;49.34;101985.34;5039854;28;45482;-54
2022/03/20 07:03:06;;;;;;;;;7.75;7.75;;;;;6.57;48.46;101991.28;5048407;28;45374;-57
2022/03/20 07:05:32;;;;;;;;;8.25;8.25;;;;;6.45;49.18;101990.59;5029060;28;47267;-56
2022/03/20 07:07:57;;;;;;;;;12.00;12.00;;;;;6.36;49.25;101988.09;5031461;28;45420;-55
2022/03/20 07:10:24;;;;;;;;;11.75;11.25;;;;;6.31;49.72;101989.94;5050592;28;45323;-56
2022/03/20 07:12:50;;;;;;;;;14.00;9.25;;;;;6.30;49.12;101988.19;5053112;28;45561;-57
2022/03/20 07:15:20;;;;;;;;;8.25;8.25;;;;;6.34;49.50;101987.25;5055739;28;46178;-53
2022/03/20 07:17:48;;;;;;;;;19.50;11.75;;;;;6.41;49.51;101983.63;5047048;28;45474;-55
2022/03/20 07:20:16;;;;;;;;;13.50;11.00;;;;;6.48;49.46;101992.28;5051855;28;45674;-55
2022/03/20 07:22:42;;;;;;;;;16.50;10.75;;;;;6.47;49.58;101987.91;5057992;28;45770;-55
2022/03/20 07:30:37;;;;;;;;;17.75;16.25;;;;;6.48;49.61;101993.16;5057275;28;45525;-57
2022/03/20 07:33:03;;;;;;;;;15.25;12.25;;;;;6.46;49.97;101992.31;5052786;28;45717;-54
2022/03/20 07:35:28;;;;;;;;;13.25;10.75;;;;;6.46;49.86;101994.97;5050760;28;45447;-54
2022/03/20 07:37:54;;;;;;;;;17.75;15.50;;;;;6.54;49.61;101988.69;5036856;28;45546;-54
2022/03/20 07:40:21;;;;;;;;;13.50;12.00;;;;;6.63;49.78;101993.81;5026728;28;45379;-55
2022/03/20 07:42:46;;;;;;;;;12.25;12.25;;;;;6.66;49.00;101996.41;5057681;28;45403;-55
2022/03/20 07:45:12;;;;;;;;;15.00;12.75;;;;;6.70;48.90;102001.63;5040036;28;46433;-56
2022/03/20 07:47:37;;;;;;;;;15.50;12.75;;;;;6.71;49.61;101991.91;5055263;28;45504;-55
2022/03/20 07:50:05;;;;;;;;;17.75;16.00;;;;;6.75;49.32;101998.88;5039738;28;45294;-56
2022/03/20 07:52:31;;;;;;;;;16.75;13.00;;;;;6.78;49.66;101998.84;5038414;28;45293;-56
2022/03/20 07:54:56;;;;;;;;;24.00;20.00;;;;;6.78;49.27;101998.84;5056762;28;45524;-57
2022/03/20 07:57:22;;;;;;;;;19.75;17.50;;;;;6.76;49.49;101995.31;5056733;28;46446;-57
2022/03/20 07:59:47;;;;;;;;;16.50;16.50;;;;;6.72;49.83;101997.16;5051647;28;45514;-57
2022/03/20 08:02:13;;;;;;;;;17.00;13.00;;;;;6.69;49.57;101973.44;5057400;28;45455;-56
2022/03/20 08:04:39;;;;;;;;;13.50;13.25;;;;;6.79;49.94;101984.72;5057097;28;45973;-57
2022/03/20 08:07:05;;;;;;;;;21.75;18.00;;;;;6.86;49.73;101996.03;5022509;28;45448;-57
2022/03/20 08:09:31;;;;;;;;;28.50;17.50;;;;;6.93;48.88;101993.28;5037759;28;45875;-57
2022/03/20 08:11:57;;;;;;;;;21.50;19.25;;;;;6.98;49.38;101991.41;5033371;28;45272;-55
2022/03/20 08:14:23;;;;;;;;;21.25;18.25;;;;;7.01;49.57;101993.97;5057654;28;45442;-57
2022/03/20 08:16:50;;;;;;;;;18.25;18.25;;;;;6.98;49.63;101980.81;5057777;28;45236;-55
2022/03/20 08:19:19;;;;;;;;;22.00;20.25;;;;;7.08;49.38;102000.91;5056942;28;45386;-55
2022/03/20 08:21:47;;;;;;;;;25.75;16.50;;;;;7.14;48.77;101988.44;5034218;28;45588;-54
2022/03/20 08:24:14;;;;;;;;;19.75;17.25;;;;;7.22;48.72;101992.69;5037830;28;46137;-56
2022/03/20 08:26:40;;;;;;;;;21.50;21.50;;;;;7.26;48.91;101997.03;5038378;28;45253;-56
2022/03/20 08:29:08;;;;;;;;;24.25;20.50;;;;;7.31;48.71;101994.31;5038903;28;45409;-56
2022/03/20 08:31:34;;;;;;;;;24.50;21.25;;;;;7.27;48.82;101982.88;5037466;28;45544;-57
2022/03/20 08:33:59;;;;;;;;;22.00;20.75;;;;;7.37;48.59;101991.53;5057145;28;46302;-57
2022/03/20 08:36:25;;;;;;;;;19.00;19.00;;;;;7.30;48.78;101971.41;5055099;28;45486;-60
2022/03/20 08:38:51;;;;;;;;;24.25;23.25;;;;;7.39;49.13;101989.72;5053944;28;45495;-55
2022/03/20 08:41:17;;;;;;;;;20.00;18.00;;;;;7.47;49.04;102000.16;5057219;28;45634;-57
2022/03/20 08:43:43;;;;;;;;;29.50;27.50;;;;;7.54;48.64;101997.31;5056989;28;45927;-57
2022/03/20 08:46:08;;;;;;;;;25.75;21.50;;;;;7.62;48.67;102003.34;5037886;28;45259;-57
2022/03/20 08:48:34;;;;;;;;;26.50;22.00;;;;;7.67;48.51;101992.63;5057150;28;45312;-54
2022/03/20 08:50:59;;;;;;;;;26.75;23.25;;;;;7.76;48.45;102003.03;5057371;28;45284;-55
2022/03/20 08:53:25;;;;;;;;;31.50;22.00;;;;;7.78;48.68;101995.94;5022082;28;46117;-60
2022/03/20 08:55:53;;;;;;;;;27.50;23.75;;;;;7.94;47.69;101991.16;5039346;28;45397;-56
2022/03/20 08:58:19;;;;;;;;;24.25;21.25;;;;;8.24;47.76;101995.75;5057409;28;45535;-56
2022/03/20 09:00:44;;;;;;;;;30.75;25.00;;;;;8.39;46.96;101980.41;5039061;28;45383;-57
2022/03/20 09:03:11;;;;;;;;;29.00;25.00;;;;;8.72;46.33;101986.63;5055319;28;46211;-56
2022/03/20 09:05:37;;;;;;;;;36.75;31.75;;;;;8.92;45.60;101984.34;5056805;28;45434;-56
2022/03/20 09:08:04;;;;;;;;;32.25;25.00;;;;;9.24;45.73;101995.81;5055104;28;45362;-57
2022/03/20 09:10:29;;;;;;;;;32.25;27.50;;;;;9.46;44.55;102000.50;5055694;28;45320;-57
2022/03/20 09:12:57;;;;;;;;;26.50;22.50;;;;;9.70;45.46;101996.25;5055682;28;45325;-57
2022/03/20 09:15:24;;;;;;;;;30.25;27.50;;;;;9.92;43.76;101999.13;5038994;28;45481;-56
2022/03/20 09:20:36;;;;;;;;;19.75;17.50;;;;;10.37;43.15;101995.06;5055622;28;45831;-57
2022/03/20 09:23:02;;;;;;;;;38.50;28.75;;;;;10.63;42.63;101995.94;5056225;28;46440;-56
2022/03/20 09:25:28;;;;;;;;;28.50;26.75;;;;;10.87;42.20;101994.22;5056413;28;45310;-55
2022/03/20 09:27:54;;;;;;;;;36.00;29.00;;;;;11.13;41.84;102001.31;5056782;28;45313;-58
2022/03/20 09:30:21;;;;;;;;;28.25;24.75;;;;;11.34;41.03;101977.50;5056886;28;45621;-54
2022/03/20 09:32:48;;;;;;;;;37.25;29.75;;;;;11.62;40.50;101987.97;5056207;28;45605;-57
2022/03/20 09:35:14;;;;;;;;;35.00;29.25;;;;;11.91;40.67;101995.72;5056111;28;45323;-56
2022/03/20 09:37:39;;;;;;;;;31.50;27.50;;;;;12.17;40.06;101988.50;5055262;28;47430;-55
2022/03/20 09:40:06;;;;;;;;;32.50;29.75;;;;;12.32;38.30;101996.72;5056553;28;45528;-56
2022/03/20 09:42:34;;;;;;;;;31.50;28.00;;;;;12.34;38.48;101984.19;5037990;28;48236;-55
2022/03/20 09:44:59;;;;;;;;;29.75;27.75;;;;;12.48;38.49;101980.09;5056100;28;45343;-58
2022/03/20 09:47:25;;;;;;;;;28.75;28.75;;;;;12.63;38.54;101979.44;5056425;28;45233;-57
2022/03/20 09:49:53;;;;;;;;;27.75;25.25;;;;;12.76;38.17;101987.78;5055537;28;45560;-57
2022/03/20 09:52:19;;;;;;;;;36.75;34.25;;;;;12.79;38.14;101980.53;5037880;28;45386;-57
2022/03/20 09:54:45;;;;;;;;;40.00;31.25;;;;;12.78;37.87;101973.47;5056198;28;45348;-57
2022/03/20 09:57:11;;;;;;;;;29.00;26.00;;;;;12.81;37.93;101986.66;5056213;28;45357;-57
2022/03/20 09:59:38;;;;;;;;;33.75;28.00;;;;;12.80;37.68;101984.94;5056276;28;45386;-56
2022/03/20 10:02:05;;;;;;;;;34.50;29.25;;;;;12.84;37.78;101980.31;5054776;28;45633;-55
2022/03/20 10:04:34;;;;;;;;;30.00;27.25;;;;;12.80;37.62;101982.28;5055674;28;45342;-55
2022/03/20 10:07:00;;;;;;;;;31.50;27.00;;;;;12.65;37.84;101983.78;5055900;28;45285;-56
2022/03/20 10:09:26;;;;;;;;;38.50;35.50;;;;;12.54;37.65;101988.72;5056244;28;45632;-58
2022/03/20 10:12:00;;;;;;;;;34.00;25.25;;;;;12.43;37.89;101990.09;5037623;28;46089;-57
2022/03/20 10:14:31;;;;;;;;;39.75;31.25;;;;;12.34;36.93;101992.19;5055738;28;45348;-57
2022/03/20 10:17:16;;;;;;;;;27.25;24.25;;;;;12.29;36.82;101986.19;5055975;28;45281;-58
2022/03/20 10:19:42;;;;;;;;;20.50;19.50;;;;;12.21;37.61;101982.97;5055839;28;45346;-55
2022/03/20 10:22:10;;;;;;;;;29.50;27.25;;;;;12.13;37.36;101985.09;5055740;28;46220;-56
2022/03/20 10:24:38;;;;;;;;;32.00;28.50;;;;;12.06;37.36;101994.25;5056122;28;45413;-54
2022/03/20 10:27:05;;;;;;;;;25.25;25.00;;;;;12.02;36.38;101982.84;5057587;28;45405;-57
2022/03/20 10:29:32;;;;;;;;;35.00;33.00;;;;;12.02;36.42;101987.31;5040252;28;45376;-58
2022/03/20 10:32:01;;;;;;;;;26.25;23.00;;;;;11.90;36.51;101993.13;5045039;28;45510;-51
2022/03/20 10:34:27;;;;;;;;;35.25;29.25;;;;;11.81;36.52;101997.00;5053556;28;46788;-57
2022/03/20 10:36:53;;;;;;;;;28.00;24.75;;;;;11.84;37.30;101991.56;5037904;28;45362;-60
2022/03/20 10:39:21;;;;;;;;;13.00;12.50;;;;;11.82;36.75;101982.75;5034520;28;45612;-59
2022/03/20 10:41:47;;;;;;;;;26.75;22.25;;;;;11.92;36.04;101985.94;5039977;28;45856;-59
2022/03/20 10:44:18;;;;;;;;;37.00;32.50;;;;;11.97;35.29;101995.47;5040451;28;45569;-58
2022/03/20 10:47:16;;;;;;;;;29.50;20.50;;;;;11.97;35.75;101971.47;5044085;28;45232;-56
2022/03/20 10:49:47;;;;;;;;;12.75;11.75;;;;;12.12;35.00;101983.34;5052937;28;45181;-57
2022/03/20 10:52:20;;;;;;;;;15.75;15.75;;;;;12.14;33.72;101988.63;5051387;28;45811;-58
2022/03/20 10:54:51;;;;;;;;;18.50;14.75;;;;;12.04;32.73;101969.44;5057636;28;45453;-57
2022/03/20 10:57:17;;;;;;;;;20.75;17.25;;;;;12.13;33.57;101963.75;5057471;28;45415;-59
2022/03/20 10:59:43;;;;;;;;;22.50;18.75;;;;;12.17;33.33;101961.81;5055545;28;45483;-58
2022/03/20 11:02:23;;;;;;;;;20.75;20.75;;;;;12.35;33.72;101969.91;5059297;28;46156;-58
2022/03/20 11:04:50;;;;;;;;;20.75;18.50;;;;;12.31;35.01;101979.00;5057169;28;45382;-58
2022/03/20 11:07:23;;;;;;;;;17.50;17.50;;;;;12.39;33.07;101976.88;5057151;28;45465;-57
2022/03/20 11:09:54;;;;;;;;;21.00;17.50;;;;;12.45;33.26;101966.88;5040797;28;45641;-61
2022/03/20 11:12:41;;;;;;;;;19.75;18.50;;;;;12.49;33.59;101974.69;5036720;28;46049;-59
2022/03/20 11:15:07;;;;;;;;;24.25;19.50;;;;;12.62;33.05;101967.88;5038990;28;45419;-56
2022/03/20 11:17:51;;;;;;;;;21.25;16.75;;;;;12.69;32.26;101957.84;5037193;28;45581;-57
2022/03/20 11:20:18;;;;;;;;;22.00;18.75;;;;;12.89;32.17;101963.19;5058889;28;45462;-59
2022/03/20 11:22:49;;;;;;;;;21.75;20.75;;;;;12.99;31.74;101964.50;5058799;28;45994;-58
2022/03/20 11:25:20;;;;;;;;;22.00;21.50;;;;;13.06;31.66;101959.75;5057632;28;45490;-61
2022/03/20 11:27:59;;;;;;;;;21.00;18.75;;;;;13.20;32.31;101962.72;5057818;28;45402;-58
2022/03/20 11:30:29;;;;;;;;;20.75;20.75;;;;;13.24;31.77;101958.97;5057563;28;45438;-59
2022/03/20 11:32:57;;;;;;;;;13.75;11.50;;;;;13.26;31.59;101956.22;5058709;28;46439;-60
2022/03/20 11:35:33;;;;;;;;;23.75;18.50;;;;;13.34;31.33;101964.75;5056647;28;45478;-58
2022/03/20 11:38:16;;;;;;;;;21.25;15.75;;;;;13.50;30.76;101963.09;5059067;28;45425;-55
2022/03/20 11:41:04;;;;;;;;;21.50;18.75;;;;;13.66;31.25;101973.06;5055324;28;45792;-59
2022/03/20 11:43:29;;;;;;;;;19.25;17.25;;;;;13.69;30.14;101956.91;5057048;28;45484;-58
2022/03/20 11:46:16;;;;;;;;;19.75;16.50;;;;;13.66;30.92;101936.50;5052026;28;45359;-58
2022/03/20 11:48:41;;;;;;;;;19.50;19.25;;;;;14.03;30.07;101954.34;5050066;28;46775;-57
2022/03/20 11:51:08;;;;;;;;;17.50;14.50;;;;;13.52;30.57;101875.69;5051432;28;45549;-56
2022/03/20 11:53:37;;;;;;;;;22.50;18.00;;;;;14.08;28.82;101943.44;5049538;28;47441;-59
2022/03/20 11:56:03;;;;;;;;;19.33;15.00;;;;;14.10;27.99;101941.53;5050703;28;46242;-57